Time;durP1;ratioP1;P1;durP2;ratioP2;P2;SDS_P1;SDS_P2;PMS_P1;PMS_P2;Temp;Humidity;BMP_temperature;BMP_pressure;BME280_temperature;BME280_humidity;BME280_pressure;Samples;Min_cycle;Max_cycle;Signal;HPM_P1;HPM_P2
2022/05/02 00:00:01;;;;;;;;;;;;;;;4.99;96.22;100000.69;5053726;28;925;-54
2022/05/02 00:02:27;;;;;;;;;;;;;;;5.00;96.40;100002.31;5054100;28;869;-55
2022/05/02 00:04:54;;;;;;;;;;;;;;;4.86;95.92;100006.31;5053762;28;818;-55
2022/05/02 00:07:21;;;;;;;;;;;;;;;4.87;96.76;99998.91;5053668;28;852;-55
2022/05/02 00:09:48;;;;;;;;;;;;;;;4.89;96.63;100002.06;5053624;28;811;-52
2022/05/02 00:12:14;;;;;;;;;;;;;;;4.79;96.36;100002.63;5053380;28;1886;-54
2022/05/02 00:14:41;;;;;;;;;;;;;;;4.73;97.14;100004.06;5053550;28;1027;-52
2022/05/02 00:17:08;;;;;;;;;;;;;;;4.77;97.67;100002.19;5053532;28;803;-55
2022/05/02 00:19:34;;;;;;;;;;;;;;;4.79;97.14;100011.63;5052322;28;846;-55
2022/05/02 00:22:01;;;;;;;;;;;;;;;4.66;96.66;100010.97;5053534;28;803;-55
2022/05/02 00:24:28;;;;;;;;;;;;;;;4.51;97.07;100009.06;5053475;28;1013;-54
2022/05/02 00:26:56;;;;;;;;;;;;;;;4.45;97.64;100000.31;5053167;28;1259;-53
2022/05/02 00:29:22;;;;;;;;;;;;;;;4.52;98.02;100002.44;5053202;28;915;-54
2022/05/02 00:31:49;;;;;;;;;;;;;;;4.40;97.31;99997.88;5052969;28;1906;-55
2022/05/02 00:34:15;;;;;;;;;;;;;;;4.35;97.99;100005.56;5053310;28;882;-54
2022/05/02 00:36:43;;;;;;;;;;;;;;;4.42;98.13;100000.25;5053150;28;827;-54
2022/05/02 00:39:10;;;;;;;;;;;;;;;4.48;98.06;99996.06;5052975;28;867;-54
2022/05/02 00:41:36;;;;;;;;;;;;;;;4.48;98.04;99998.81;5053258;28;802;-55
2022/05/02 00:44:04;;;;;;;;;;;;;;;4.47;97.79;99998.03;5052956;28;815;-54
2022/05/02 00:46:30;;;;;;;;;;;;;;;4.36;97.29;100004.41;5052972;28;877;-55
2022/05/02 00:48:56;;;;;;;;;;;;;;;4.19;97.45;100009.09;5053001;28;795;-54
2022/05/02 00:51:23;;;;;;;;;;;;;;;4.22;98.43;100002.91;5052727;28;1918;-55
2022/05/02 00:53:51;;;;;;;;;;;;;;;4.24;98.26;99999.84;5052856;28;878;-55
2022/05/02 00:56:20;;;;;;;;;;;;;;;4.20;98.70;99997.00;5052747;28;859;-55
2022/05/02 00:58:48;;;;;;;;;;;;;;;4.23;99.16;99988.09;5052535;28;1322;-55
2022/05/02 01:01:15;;;;;;;;;;;;;;;4.18;98.72;100002.06;5052683;28;822;-55
2022/05/02 01:03:42;;;;;;;;;;;;;;;4.11;98.77;99996.41;5034820;28;811;-55
2022/05/02 01:08:54;;;;;;;;;;;;;;;4.44;98.96;99995.22;5052858;28;605;-55
2022/05/02 01:11:21;;;;;;;;;;;;;;;4.53;98.40;99995.81;5034552;28;1976;-54
2022/05/02 01:13:49;;;;;;;;;;;;;;;4.43;98.26;99988.94;5052461;28;890;-54
2022/05/02 01:16:18;;;;;;;;;;;;;;;4.32;98.11;99998.84;5052221;28;871;-55
2022/05/02 01:18:45;;;;;;;;;;;;;;;4.24;98.72;100002.56;5052151;28;1775;-52
2022/05/02 01:21:14;;;;;;;;;;;;;;;4.39;99.58;99996.28;5052315;28;833;-55
2022/05/02 01:23:40;;;;;;;;;;;;;;;4.70;98.53;99994.63;5052103;28;945;-55
2022/05/02 01:26:07;;;;;;;;;;;;;;;4.91;97.75;99995.09;5052245;28;818;-54
2022/05/02 01:28:40;;;;;;;;;;;;;;;5.02;96.81;99995.31;5030839;28;1405;-53
2022/05/02 01:31:06;;;;;;;;;;;;;;;5.06;95.95;99996.16;5031786;28;1914;-55
2022/05/02 01:33:34;;;;;;;;;;;;;;;5.07;95.47;99994.22;5032298;28;826;-54
2022/05/02 01:36:00;;;;;;;;;;;;;;;5.02;95.39;99995.31;5032128;28;1201;-55
2022/05/02 01:38:27;;;;;;;;;;;;;;;4.89;95.32;99999.34;5031980;28;937;-55
2022/05/02 01:40:54;;;;;;;;;;;;;;;4.80;95.44;99993.25;5032010;28;823;-53
2022/05/02 01:43:21;;;;;;;;;;;;;;;4.76;95.40;99993.19;5031870;28;872;-54
2022/05/02 01:45:48;;;;;;;;;;;;;;;4.69;95.64;100001.25;5032015;28;819;-54
2022/05/02 01:48:16;;;;;;;;;;;;;;;4.67;95.51;99995.34;5032093;28;886;-54
2022/05/02 01:50:43;;;;;;;;;;;;;;;4.63;95.83;99998.00;5031862;28;1951;-55
2022/05/02 01:53:10;;;;;;;;;;;;;;;4.57;96.27;99987.69;5031824;28;807;-54
2022/05/02 01:55:36;;;;;;;;;;;;;;;4.55;96.27;99977.09;5031804;28;823;-55
2022/05/02 01:58:03;;;;;;;;;;;;;;;4.50;96.53;99986.38;5031730;28;568;-55
2022/05/02 02:00:30;;;;;;;;;;;;;;;4.46;96.82;99990.19;5031789;28;835;-55
2022/05/02 02:02:57;;;;;;;;;;;;;;;4.52;96.47;99979.75;5031706;28;834;-55
2022/05/02 02:08:07;;;;;;;;;;;;;;;4.35;95.94;99980.94;5031690;28;700;-55
2022/05/02 02:10:34;;;;;;;;;;;;;;;4.18;96.41;99974.72;5031416;28;1890;-55
2022/05/02 02:13:01;;;;;;;;;;;;;;;4.09;96.74;99980.34;5031572;28;921;-54
2022/05/02 02:15:26;;;;;;;;;;;;;;;4.23;96.95;99973.63;5031614;28;905;-52
2022/05/02 02:17:53;;;;;;;;;;;;;;;4.34;96.65;99969.19;5031627;28;795;-54
2022/05/02 02:20:20;;;;;;;;;;;;;;;4.30;96.16;99966.38;5031530;28;818;-55
2022/05/02 02:22:46;;;;;;;;;;;;;;;4.16;96.54;99974.25;5031573;28;917;-54
2022/05/02 02:25:13;;;;;;;;;;;;;;;3.98;96.52;99954.69;5031880;28;1020;-55
2022/05/02 02:27:40;;;;;;;;;;;;;;;3.82;96.66;99956.63;5042091;28;1401;-56
2022/05/02 02:30:07;;;;;;;;;;;;;;;3.63;96.79;99957.34;5051232;28;925;-56
2022/05/02 02:32:34;;;;;;;;;;;;;;;3.53;97.23;99938.72;5051180;28;1969;-55
2022/05/02 02:35:00;;;;;;;;;;;;;;;3.50;97.57;99951.16;5051227;28;834;-55
2022/05/02 02:37:27;;;;;;;;;;;;;;;3.63;97.69;99943.66;5051338;28;885;-55
2022/05/02 02:39:54;;;;;;;;;;;;;;;3.99;97.22;99950.00;5051135;28;823;-54
2022/05/02 02:42:22;;;;;;;;;;;;;;;4.13;96.94;99946.81;5051252;28;835;-55
2022/05/02 02:44:49;;;;;;;;;;;;;;;4.12;96.67;99942.47;5054795;28;914;-55
2022/05/02 02:47:16;;;;;;;;;;;;;;;4.03;96.29;99948.94;5055095;28;941;-54
2022/05/02 02:49:43;;;;;;;;;;;;;;;3.87;96.55;99950.91;5055181;28;850;-54
2022/05/02 02:52:09;;;;;;;;;;;;;;;3.76;97.42;99944.38;5055061;28;1956;-55
2022/05/02 02:54:36;;;;;;;;;;;;;;;3.85;97.59;99940.31;5055057;28;807;-55
2022/05/02 02:57:02;;;;;;;;;;;;;;;4.13;97.27;99942.13;5055012;28;929;-54
2022/05/02 02:59:29;;;;;;;;;;;;;;;4.23;96.73;99933.38;5055014;28;850;-55
2022/05/02 03:01:56;;;;;;;;;;;;;;;4.21;96.72;99932.94;5055012;28;831;-54
2022/05/02 03:07:08;;;;;;;;;;;;;;;4.13;96.80;99933.13;5055155;28;609;-55
2022/05/02 03:09:35;;;;;;;;;;;;;;;4.12;96.99;99934.28;5054668;28;901;-55
2022/05/02 03:12:02;;;;;;;;;;;;;;;4.11;96.85;99924.50;5054772;28;1882;-56
2022/05/02 03:14:29;;;;;;;;;;;;;;;4.07;97.43;99924.41;5054753;28;857;-56
2022/05/02 03:16:56;;;;;;;;;;;;;;;4.10;97.77;99926.44;5054654;28;870;-54
2022/05/02 03:19:22;;;;;;;;;;;;;;;4.12;97.99;99934.28;5054523;28;950;-55
2022/05/02 03:21:49;;;;;;;;;;;;;;;4.19;97.86;99916.09;5054815;28;925;-54
2022/05/02 03:24:15;;;;;;;;;;;;;;;4.26;97.49;99921.72;5054617;28;1020;-54
2022/05/02 03:26:42;;;;;;;;;;;;;;;4.36;97.44;99928.59;5054262;28;1249;-54
2022/05/02 03:29:09;;;;;;;;;;;;;;;4.56;96.49;99926.66;5054523;28;866;-54
2022/05/02 03:31:35;;;;;;;;;;;;;;;5.11;94.75;99921.09;5054290;28;1973;-54
2022/05/02 03:34:02;;;;;;;;;;;;;;;5.24;93.89;99921.75;5054417;28;937;-53
2022/05/02 03:36:28;;;;;;;;;;;;;;;5.21;93.42;99922.47;5054278;28;809;-56
2022/05/02 03:38:54;;;;;;;;;;;;;;;5.14;93.66;99911.38;5054331;28;842;-53
2022/05/02 03:41:20;;;;;;;;;;;;;;;5.11;93.57;99916.41;5054430;28;811;-54
2022/05/02 03:43:47;;;;;;;;;;;;;;;5.14;93.63;99912.16;5054273;28;1206;-55
2022/05/02 03:46:14;;;;;;;;;;;;;;;5.24;94.43;99913.53;5054192;28;810;-55
2022/05/02 03:48:40;;;;;;;;;;;;;;;5.43;93.60;99915.44;5036512;28;1388;-54
2022/05/02 03:51:07;;;;;;;;;;;;;;;5.71;93.44;99915.91;5053977;28;1947;-55
2022/05/02 03:53:34;;;;;;;;;;;;;;;5.87;92.87;99913.03;5053639;28;892;-55
2022/05/02 03:56:01;;;;;;;;;;;;;;;5.99;91.83;99912.06;5053931;28;874;-55
2022/05/02 03:58:28;;;;;;;;;;;;;;;6.09;91.95;99910.66;5054009;28;850;-54
2022/05/02 04:00:56;;;;;;;;;;;;;;;6.23;92.38;99919.09;5054137;28;878;-55
2022/05/02 04:03:22;;;;;;;;;;;;;;;6.48;93.03;99915.91;5053998;28;894;-55
2022/05/02 04:05:49;;;;;;;;;;;;;;;6.77;92.72;99913.53;5053831;28;802;-55
2022/05/02 04:08:16;;;;;;;;;;;;;;;7.24;92.23;99917.59;5053583;28;810;-55
2022/05/02 04:10:43;;;;;;;;;;;;;;;7.69;90.96;99916.44;5053515;28;1886;-55
2022/05/02 04:13:09;;;;;;;;;;;;;;;8.05;88.86;99915.94;5053589;28;822;-55
2022/05/02 04:15:37;;;;;;;;;;;;;;;8.06;88.11;99912.78;5053594;28;830;-56
2022/05/02 04:18:04;;;;;;;;;;;;;;;8.00;88.95;99925.34;5053514;28;834;-55
2022/05/02 04:20:29;;;;;;;;;;;;;;;7.93;88.96;99920.56;5053665;28;907;-54
2022/05/02 04:22:56;;;;;;;;;;;;;;;7.86;89.34;99914.22;5053562;28;854;-55
2022/05/02 04:25:22;;;;;;;;;;;;;;;7.87;89.40;99919.34;5053654;28;1011;-55
2022/05/02 04:27:49;;;;;;;;;;;;;;;7.98;89.79;99922.19;5053021;28;1238;-55
2022/05/02 04:30:16;;;;;;;;;;;;;;;8.11;89.11;99928.16;5053372;28;802;-55
2022/05/02 04:32:43;;;;;;;;;;;;;;;8.24;88.52;99921.19;5053192;28;1910;-55
2022/05/02 04:35:12;;;;;;;;;;;;;;;8.39;88.31;99916.53;5053241;28;909;-54
2022/05/02 04:37:40;;;;;;;;;;;;;;;8.55;88.06;99913.50;5053007;28;878;-55
2022/05/02 04:40:06;;;;;;;;;;;;;;;8.63;87.69;99909.59;5053307;28;865;-54
2022/05/02 04:42:33;;;;;;;;;;;;;;;8.71;86.36;99911.22;5053046;28;814;-55
2022/05/02 04:45:00;;;;;;;;;;;;;;;8.72;86.30;99906.50;5052966;28;843;-54
2022/05/02 04:47:27;;;;;;;;;;;;;;;8.71;86.52;99910.44;5052998;28;818;-55
2022/05/02 04:49:54;;;;;;;;;;;;;;;8.76;87.08;99910.06;5052844;28;928;-54
2022/05/02 04:52:21;;;;;;;;;;;;;;;8.92;86.93;99916.03;5052820;28;1963;-54
2022/05/02 04:54:47;;;;;;;;;;;;;;;9.16;87.44;99919.25;5053081;28;885;-53
2022/05/02 04:57:14;;;;;;;;;;;;;;;9.64;85.51;99921.69;5052815;28;838;-54
2022/05/02 04:59:40;;;;;;;;;;;;;;;9.93;82.90;99925.25;5052598;28;859;-54
2022/05/02 05:02:06;;;;;;;;;;;;;;;10.16;81.38;99932.34;5034891;28;812;-54
2022/05/02 05:04:32;;;;;;;;;;;;;;;10.23;81.04;99919.31;5052649;28;842;-55
2022/05/02 05:07:00;;;;;;;;;;;;;;;10.52;81.55;99924.00;5051786;28;877;-55
2022/05/02 05:09:27;;;;;;;;;;;;;;;11.04;80.46;99924.22;5052749;28;1010;-53
2022/05/02 05:12:11;;;;;;;;;;;;;;;12.11;74.48;99924.69;5052333;28;1882;-53
2022/05/02 05:17:41;;;;;;;;;;;;;;;14.80;62.97;99923.56;5052404;28;684;-54
2022/05/02 05:20:26;;;;;;;;;;;;;;;15.90;60.91;99923.13;5052399;28;881;-55
2022/05/02 05:23:07;;;;;;;;;;;;;;;16.47;57.76;99909.69;5052329;28;823;-55
2022/05/02 05:25:33;;;;;;;;;;;;;;;16.87;57.01;99917.75;5052540;28;879;-55
2022/05/02 05:28:15;;;;;;;;;;;;;;;16.46;57.59;99918.50;5051992;28;1316;-55
2022/05/02 05:30:48;;;;;;;;;;;;;;;15.40;60.35;99912.34;5052107;28;1902;-53
2022/05/02 05:33:32;;;;;;;;;;;;;;;14.43;60.80;99906.00;5052029;28;894;-54
2022/05/02 05:36:16;;;;;;;;;;;;;;;14.19;63.72;99905.22;5052309;28;842;-53
2022/05/02 05:38:43;;;;;;;;;;;;;;;15.76;60.82;99908.75;5052013;28;846;-55
2022/05/02 05:41:33;;;;;;;;;;;;;;;16.79;56.14;99918.38;5051945;28;794;-56
2022/05/02 05:44:14;;;;;;;;;;;;;;;17.91;55.62;99911.78;5005990;28;1118;-56
2022/05/02 05:46:47;;;;;;;;;;;;;;;18.58;54.87;99918.28;5051761;28;882;-56
2022/05/02 05:49:26;;;;;;;;;;;;;;;19.03;51.44;99910.69;5051909;28;815;-53
2022/05/02 05:52:03;;;;;;;;;;;;;;;19.05;51.46;99916.59;5051788;28;1886;-54
2022/05/02 05:54:59;;;;;;;;;;;;;;;19.59;50.82;99921.69;5034030;28;901;-55
2022/05/02 05:57:28;;;;;;;;;;;;;;;20.21;49.24;99925.59;5030924;28;1311;-52
2022/05/02 05:59:55;;;;;;;;;;;;;;;20.69;46.21;99923.13;5051572;28;829;-54
2022/05/02 06:02:32;;;;;;;;;;;;;;;21.20;46.77;99930.06;5051664;28;787;-55
2022/05/02 06:04:59;;;;;;;;;;;;;;;21.45;42.88;99934.53;5051470;28;835;-52
2022/05/02 06:07:27;;;;;;;;;;;;;;;21.33;45.41;99933.44;5051568;28;1008;-54
2022/05/02 06:09:57;;;;;;;;;;;;;;;21.88;47.50;99926.81;5051519;28;866;-54
2022/05/02 06:12:28;;;;;;;;;;;;;;;22.53;47.29;99920.75;5051353;28;1870;-55
2022/05/02 06:20:28;;;;;;;;;;;;;;;22.47;42.38;99937.56;5036643;28;626;-56
2022/05/02 06:22:58;;;;;;;;;;;;;;;22.27;41.49;99921.25;5051410;28;827;-55
2022/05/02 06:25:24;;;;;;;;;;;;;;;22.23;41.07;99943.19;5051610;28;993;-56
2022/05/02 06:27:52;;;;;;;;;;;;;;;22.27;42.82;99937.38;5051075;28;1241;-55
2022/05/02 06:30:18;;;;;;;;;;;;;;;22.69;40.76;99930.78;5051424;28;814;-54
2022/05/02 06:32:46;;;;;;;;;;;;;;;22.26;39.10;99933.03;5051187;28;1967;-55
2022/05/02 06:35:13;;;;;;;;;;;;;;;22.50;40.94;99941.44;5051317;28;894;-54
2022/05/02 06:37:42;;;;;;;;;;;;;;;22.86;38.18;99943.16;5051256;28;814;-56
2022/05/02 06:40:09;;;;;;;;;;;;;;;22.59;38.71;99949.78;5051077;28;945;-55
2022/05/02 06:42:35;;;;;;;;;;;;;;;22.62;38.49;99941.16;5051256;28;811;-54
2022/05/02 06:45:14;;;;;;;;;;;;;;;22.53;40.49;99944.06;5051154;28;968;-55
2022/05/02 06:48:01;;;;;;;;;;;;;;;22.98;40.80;99942.09;5051249;28;865;-56
2022/05/02 06:50:29;;;;;;;;;;;;;;;23.21;39.37;99950.94;5051037;28;954;-56
2022/05/02 06:53:06;;;;;;;;;;;;;;;23.37;37.90;99946.88;5051067;28;1874;-55
2022/05/02 06:55:38;;;;;;;;;;;;;;;23.88;37.38;99947.69;5051129;28;850;-55
2022/05/02 06:58:08;;;;;;;;;;;;;;;23.98;37.33;99938.59;5051076;28;878;-54
2022/05/02 07:00:37;;;;;;;;;;;;;;;23.90;37.27;99939.47;5051158;28;838;-54
2022/05/02 07:03:09;;;;;;;;;;;;;;;23.72;38.15;99934.84;5016786;28;1482;-56
2022/05/02 07:06:00;;;;;;;;;;;;;;;23.56;38.48;99925.63;5033093;28;1268;-55
2022/05/02 07:08:28;;;;;;;;;;;;;;;23.92;35.86;99932.09;5051002;28;826;-56
2022/05/02 07:14:10;;;;;;;;;;;;;;;24.02;37.31;99938.34;5050958;28;617;-56
2022/05/02 07:16:43;;;;;;;;;;;;;;;24.20;37.49;99932.44;5051135;28;826;-53
2022/05/02 07:19:28;;;;;;;;;;;;;;;24.52;36.60;99926.97;5051149;28;858;-54
2022/05/02 07:21:58;;;;;;;;;;;;;;;24.58;36.33;99918.53;5050777;28;1055;-55
2022/05/02 07:24:25;;;;;;;;;;;;;;;24.18;35.62;99931.41;5051266;28;993;-55
2022/05/02 07:27:00;;;;;;;;;;;;;;;24.29;36.92;99930.75;5050628;28;1096;-54
2022/05/02 07:29:30;;;;;;;;;;;;;;;24.16;35.95;99929.06;5051954;28;930;-56
2022/05/02 07:31:58;;;;;;;;;;;;;;;24.07;36.43;99934.84;5054253;28;1967;-55
2022/05/02 07:34:26;;;;;;;;;;;;;;;24.14;34.52;99934.41;5054241;28;823;-55
2022/05/02 07:39:57;;;;;;;;;;;;;;;23.65;36.42;99933.97;5054393;28;625;-56
2022/05/02 07:42:25;;;;;;;;;;;;;;;24.10;35.37;99922.56;5054072;28;848;-57
2022/05/02 07:44:55;;;;;;;;;;;;;;;24.07;33.94;99915.09;5054218;28;815;-55
2022/05/02 07:47:22;;;;;;;;;;;;;;;23.78;33.84;99925.22;5019876;28;922;-57
2022/05/02 07:49:49;;;;;;;;;;;;;;;23.46;34.57;99920.59;5054000;28;842;-55
2022/05/02 07:52:22;;;;;;;;;;;;;;;23.60;34.84;99911.34;5053839;28;1890;-55
2022/05/02 07:54:48;;;;;;;;;;;;;;;23.97;34.69;99922.13;5053935;28;858;-56
2022/05/02 07:57:16;;;;;;;;;;;;;;;23.82;33.37;99911.66;5053796;28;890;-55
2022/05/02 07:59:44;;;;;;;;;;;;;;;23.64;33.72;99911.88;5053798;28;863;-54
2022/05/02 08:02:11;;;;;;;;;;;;;;;23.71;34.54;99894.56;5053841;28;850;-53
2022/05/02 08:04:37;;;;;;;;;;;;;;;23.81;34.10;99896.03;5053850;28;818;-55
2022/05/02 08:07:16;;;;;;;;;;;;;;;24.07;33.22;99900.97;5054031;28;913;-55
2022/05/02 08:10:07;;;;;;;;;;;;;;;23.94;32.95;99892.06;5053703;28;850;-57
2022/05/02 08:12:53;;;;;;;;;;;;;;;23.77;31.80;99901.09;5053566;28;1953;-57
2022/05/02 08:15:38;;;;;;;;;;;;;;;23.82;33.02;99886.28;5053508;28;866;-54
2022/05/02 08:18:22;;;;;;;;;;;;;;;23.87;32.83;99890.44;5053441;28;938;-55
2022/05/02 08:21:02;;;;;;;;;;;;;;;24.20;33.74;99890.09;5053416;28;958;-55
2022/05/02 08:29:32;;;;;;;;;;;;;;;24.05;30.93;99889.41;5014387;28;700;-56
2022/05/02 08:32:10;;;;;;;;;;;;;;;23.84;31.40;99897.84;5013710;28;2001;-57
2022/05/02 08:34:44;;;;;;;;;;;;;;;23.65;32.27;99883.19;5013524;28;955;-55
2022/05/02 08:37:29;;;;;;;;;;;;;;;23.85;33.88;99881.69;5013559;28;924;-54
2022/05/02 08:40:14;;;;;;;;;;;;;;;23.93;32.19;99876.41;5013296;28;838;-55
2022/05/02 08:42:46;;;;;;;;;;;;;;;23.95;31.42;99877.47;5013290;28;909;-56
2022/05/02 08:45:34;;;;;;;;;;;;;;;23.26;31.63;99876.97;5013412;28;853;-57
2022/05/02 08:48:10;;;;;;;;;;;;;;;23.56;32.33;99868.44;4983099;28;1319;-55
2022/05/02 08:50:56;;;;;;;;;;;;;;;23.61;32.08;99874.16;5013281;28;876;-56
2022/05/02 08:53:23;;;;;;;;;;;;;;;23.33;31.91;99870.94;5012793;28;1754;-57
2022/05/02 08:56:08;;;;;;;;;;;;;;;22.89;32.13;99860.44;5013242;28;881;-56
2022/05/02 08:58:52;;;;;;;;;;;;;;;21.71;35.55;99861.75;5013151;28;898;-55
2022/05/02 09:01:24;;;;;;;;;;;;;;;22.16;37.10;99845.78;5013267;28;822;-54
2022/05/02 09:04:17;;;;;;;;;;;;;;;22.84;34.64;99838.59;5013088;28;861;-57
2022/05/02 09:07:02;;;;;;;;;;;;;;;22.57;34.41;99842.47;5012962;28;874;-55
2022/05/02 09:09:35;;;;;;;;;;;;;;;22.27;33.99;99830.41;5012951;28;1175;-54
2022/05/02 09:12:20;;;;;;;;;;;;;;;22.39;35.51;99820.91;5012779;28;1951;-56
2022/05/02 09:14:52;;;;;;;;;;;;;;;22.55;35.20;99812.00;5012852;28;811;-56
2022/05/02 09:17:22;;;;;;;;;;;;;;;22.78;34.45;99796.22;5012899;28;853;-57
2022/05/02 09:20:01;;;;;;;;;;;;;;;22.97;35.40;99796.78;5013092;28;803;-55
2022/05/02 09:22:36;;;;;;;;;;;;;;;23.06;33.98;99798.75;5012765;28;791;-55
2022/05/02 09:25:06;;;;;;;;;;;;;;;22.75;33.39;99779.53;5013173;28;906;-57
2022/05/02 09:27:50;;;;;;;;;;;;;;;22.42;35.64;99784.13;5030353;28;1183;-55
2022/05/02 09:30:33;;;;;;;;;;;;;;;22.34;35.13;99780.13;5052220;28;879;-55
2022/05/02 09:33:04;;;;;;;;;;;;;;;22.16;34.83;99775.41;5052101;28;1913;-55
2022/05/02 09:35:34;;;;;;;;;;;;;;;21.87;35.59;99775.34;5052059;28;799;-54
2022/05/02 09:38:17;;;;;;;;;;;;;;;21.50;36.56;99753.91;5052145;28;815;-53
2022/05/02 09:40:43;;;;;;;;;;;;;;;21.35;39.70;99762.25;5052019;28;819;-55
2022/05/02 09:43:19;;;;;;;;;;;;;;;21.53;34.40;99760.59;5052048;28;807;-56
2022/05/02 09:52:01;;;;;;;;;;;;;;;20.85;37.36;99747.09;5051554;28;1951;-54
2022/05/02 10:26:50;;;;;;;;;;;;;;;21.14;35.84;99707.91;5219359;22;1694;-56
2022/05/02 10:29:32;;;;;;;;;;;;;;;21.04;34.47;99700.00;5051422;28;813;-56
2022/05/02 10:32:06;;;;;;;;;;;;;;;21.35;35.91;99694.03;5051143;28;1906;-56
2022/05/02 10:34:36;;;;;;;;;;;;;;;21.65;33.20;99688.50;5051671;28;945;-57
2022/05/02 10:37:06;;;;;;;;;;;;;;;21.69;34.48;99684.25;5051303;28;945;-56
2022/05/02 10:39:40;;;;;;;;;;;;;;;21.99;35.42;99684.28;5051342;28;910;-55
2022/05/02 10:42:10;;;;;;;;;;;;;;;22.20;34.99;99685.94;5051187;28;898;-57
2022/05/02 10:44:45;;;;;;;;;;;;;;;22.11;34.65;99683.22;5051201;28;933;-54
2022/05/02 10:47:11;;;;;;;;;;;;;;;21.90;33.64;99673.91;5051265;28;885;-56
2022/05/02 10:49:52;;;;;;;;;;;;;;;21.70;34.83;99687.84;5051279;28;837;-56
2022/05/02 10:52:43;;;;;;;;;;;;;;;21.57;35.01;99691.72;5051124;28;1882;-56
2022/05/02 10:55:32;;;;;;;;;;;;;;;21.29;34.01;99704.38;5050914;28;982;-57
2022/05/02 10:58:04;;;;;;;;;;;;;;;21.55;35.91;99708.28;5051042;28;937;-57
2022/05/02 11:00:31;;;;;;;;;;;;;;;21.99;35.92;99701.16;5033390;28;838;-55
2022/05/02 11:03:16;;;;;;;;;;;;;;;22.15;34.67;99692.25;5051078;28;881;-57
2022/05/02 11:05:54;;;;;;;;;;;;;;;22.15;36.11;99695.06;5054544;28;958;-56
2022/05/02 11:08:40;;;;;;;;;;;;;;;21.88;35.31;99698.16;5054896;28;862;-56
2022/05/02 11:23:25;;;;;;;;;;;;;;;21.54;35.69;99709.53;5054951;28;715;-57
2022/05/02 11:26:12;;;;;;;;;;;;;;;21.89;35.10;99717.38;5054566;28;1306;-57
2022/05/02 11:28:50;;;;;;;;;;;;;;;21.93;34.58;99712.31;5054369;28;1858;-57
2022/05/02 11:31:44;;;;;;;;;;;;;;;22.49;35.75;99720.22;5054447;28;1934;-57
2022/05/02 11:34:37;;;;;;;;;;;;;;;22.77;33.46;99724.25;5050813;28;1512;-57
2022/05/02 11:37:06;;;;;;;;;;;;;;;22.89;33.12;99730.81;5054252;28;894;-57
2022/05/02 11:39:39;;;;;;;;;;;;;;;23.04;33.92;99725.19;5054308;28;859;-56
2022/05/02 11:42:14;;;;;;;;;;;;;;;23.29;33.38;99718.09;5054305;28;810;-58
2022/05/02 11:44:58;;;;;;;;;;;;;;;23.11;31.92;99723.97;5054140;28;847;-57
2022/05/02 11:47:43;;;;;;;;;;;;;;;23.11;34.57;99719.16;5054270;28;790;-57
2022/05/02 11:50:11;;;;;;;;;;;;;;;23.52;33.18;99727.63;5054349;28;826;-58
2022/05/02 11:52:38;;;;;;;;;;;;;;;23.76;32.79;99718.94;5036335;28;1878;-57
2022/05/02 12:07:22;;;;;;;;;;;;;;;20.83;37.57;99704.66;5054168;28;608;-56
2022/05/02 12:09:49;;;;;;;;;;;;;;;20.54;36.99;99701.16;5053763;28;826;-57
2022/05/02 12:12:17;;;;;;;;;;;;;;;20.29;38.46;99702.34;5053704;28;1901;-56
2022/05/02 12:14:43;;;;;;;;;;;;;;;20.15;38.36;99691.78;5053387;28;905;-58
2022/05/02 12:17:11;;;;;;;;;;;;;;;19.89;38.49;99697.75;5053663;28;843;-56
2022/05/02 12:19:39;;;;;;;;;;;;;;;19.49;39.40;99695.84;5053621;28;798;-56
2022/05/02 12:22:08;;;;;;;;;;;;;;;19.17;40.38;99700.78;5053529;28;876;-57
2022/05/02 12:24:35;;;;;;;;;;;;;;;18.78;41.24;99691.22;5053603;28;931;-56
2022/05/02 12:27:07;;;;;;;;;;;;;;;18.71;42.18;99691.47;5032131;28;1396;-56
2022/05/02 12:29:34;;;;;;;;;;;;;;;19.62;41.21;99687.28;5033525;28;838;-56
2022/05/02 12:32:05;;;;;;;;;;;;;;;21.18;38.98;99676.81;5033400;28;1965;-57
2022/05/02 12:34:39;;;;;;;;;;;;;;;21.79;37.31;99676.53;5033482;28;810;-58
2022/05/02 12:37:24;;;;;;;;;;;;;;;22.29;35.82;99673.06;5033350;28;889;-57
2022/05/02 12:39:56;;;;;;;;;;;;;;;21.68;36.33;99663.03;5033979;28;747;-56
2022/05/02 12:42:24;;;;;;;;;;;;;;;22.25;38.19;99661.97;5033232;28;874;-57
2022/05/02 12:45:02;;;;;;;;;;;;;;;22.12;39.79;99653.81;5033194;28;794;-57
2022/05/02 12:47:40;;;;;;;;;;;;;;;21.12;41.93;99664.69;5033282;28;794;-56
2022/05/02 12:50:07;;;;;;;;;;;;;;;20.32;41.20;99650.09;5031935;28;874;-55
2022/05/02 12:52:41;;;;;;;;;;;;;;;20.42;41.21;99648.81;5032894;28;1929;-55
2022/05/02 12:55:09;;;;;;;;;;;;;;;22.04;41.07;99647.03;5033230;28;876;-57
2022/05/02 13:00:31;;;;;;;;;;;;;;;23.34;36.48;99643.28;5033187;28;624;-57
2022/05/02 13:03:02;;;;;;;;;;;;;;;22.75;36.35;99647.91;5032998;28;839;-56
2022/05/02 13:18:09;;;;;;;;;;;;;;;19.89;41.02;99646.50;5032668;28;616;-57
2022/05/02 13:20:36;;;;;;;;;;;;;;;19.49;41.85;99655.84;5032389;28;934;-57
2022/05/02 13:23:13;;;;;;;;;;;;;;;19.32;42.23;99646.97;5032350;28;846;-57
2022/05/02 13:25:49;;;;;;;;;;;;;;;19.37;42.16;99651.94;5036876;28;1243;-56
2022/05/02 13:28:27;;;;;;;;;;;;;;;19.62;42.54;99650.06;5051605;28;890;-56
2022/05/02 13:31:06;;;;;;;;;;;;;;;20.02;41.97;99654.72;5052443;28;790;-57
2022/05/02 13:33:40;;;;;;;;;;;;;;;19.97;41.97;99654.09;5052100;28;943;-56
2022/05/02 13:36:07;;;;;;;;;;;;;;;19.59;41.83;99651.78;5052103;28;791;-57
2022/05/02 13:38:42;;;;;;;;;;;;;;;19.36;43.68;99642.75;5051991;28;879;-55
2022/05/02 13:41:29;;;;;;;;;;;;;;;19.30;43.92;99630.63;5052293;28;810;-57
2022/05/02 13:44:18;;;;;;;;;;;;;;;19.15;43.96;99646.47;5052228;28;873;-56
2022/05/02 13:47:06;;;;;;;;;;;;;;;19.09;43.49;99648.34;5034184;28;838;-56
2022/05/02 13:49:35;;;;;;;;;;;;;;;19.08;44.53;99621.59;5051833;28;1752;-56
2022/05/02 13:52:35;;;;;;;;;;;;;;;19.41;44.17;99644.16;5051761;28;1886;-56
2022/05/02 13:55:06;;;;;;;;;;;;;;;19.62;44.10;99644.47;4998191;28;1117;-57
2022/05/02 13:57:38;;;;;;;;;;;;;;;19.65;45.67;99638.72;5052072;28;822;-57
2022/05/02 14:03:04;;;;;;;;;;;;;;;19.29;47.54;99648.69;5051676;28;699;-56
2022/05/02 14:05:43;;;;;;;;;;;;;;;19.48;48.22;99648.66;5051540;28;927;-56
2022/05/02 14:08:12;;;;;;;;;;;;;;;19.38;47.81;99645.88;5051533;28;929;-56
2022/05/02 14:11:00;;;;;;;;;;;;;;;19.34;46.62;99645.25;5051569;28;806;-56
2022/05/02 14:13:26;;;;;;;;;;;;;;;19.37;46.75;99646.34;5051304;28;1874;-57
2022/05/02 14:16:07;;;;;;;;;;;;;;;19.35;48.12;99634.81;5051494;28;889;-55
2022/05/02 14:18:53;;;;;;;;;;;;;;;19.39;48.35;99629.81;5051662;28;1845;-57
2022/05/02 14:21:21;;;;;;;;;;;;;;;19.22;49.00;99632.16;5051282;28;929;-56
2022/05/02 14:23:57;;;;;;;;;;;;;;;19.32;47.82;99633.72;5051898;28;926;-57
2022/05/02 14:26:28;;;;;;;;;;;;;;;19.75;47.35;99631.06;5051248;28;1300;-56
2022/05/02 14:28:55;;;;;;;;;;;;;;;20.15;46.92;99625.22;5051578;28;838;-56
2022/05/02 14:31:32;;;;;;;;;;;;;;;20.15;45.53;99635.66;5051236;28;1973;-56
2022/05/02 14:34:07;;;;;;;;;;;;;;;19.86;45.40;99641.81;5051415;28;853;-56
2022/05/02 14:48:59;;;;;;;;;;;;;;;19.19;47.21;99627.50;5055668;28;613;-56
2022/05/02 14:51:30;;;;;;;;;;;;;;;19.31;47.13;99615.38;5055042;28;1975;-57
2022/05/02 14:54:00;;;;;;;;;;;;;;;19.43;46.85;99616.44;5055109;28;934;-56
2022/05/02 14:56:29;;;;;;;;;;;;;;;19.34;47.05;99614.41;5055004;28;926;-57
2022/05/02 14:58:57;;;;;;;;;;;;;;;19.23;47.03;99611.31;5054995;28;864;-56
2022/05/02 15:01:25;;;;;;;;;;;;;;;18.93;47.00;99610.97;5037596;28;818;-56
2022/05/02 15:03:55;;;;;;;;;;;;;;;18.93;46.67;99605.38;5055025;28;810;-56
2022/05/02 15:06:26;;;;;;;;;;;;;;;19.06;46.67;99612.88;5037246;28;886;-58
2022/05/02 15:09:10;;;;;;;;;;;;;;;19.02;47.00;99613.00;5054892;28;957;-57
2022/05/02 15:11:55;;;;;;;;;;;;;;;18.92;46.77;99617.03;5054845;28;1930;-57
2022/05/02 15:14:33;;;;;;;;;;;;;;;18.74;47.32;99628.97;5054842;28;1025;-55
2022/05/02 15:17:12;;;;;;;;;;;;;;;18.68;47.52;99630.81;5055099;28;791;-57
2022/05/02 15:19:46;;;;;;;;;;;;;;;18.38;47.35;99636.00;5054726;28;827;-56
2022/05/02 15:22:16;;;;;;;;;;;;;;;18.16;48.68;99631.25;5054660;28;799;-56
2022/05/02 15:25:12;;;;;;;;;;;;;;;17.87;49.01;99625.97;5054924;28;1063;-57
2022/05/02 15:39:12;;;;;;;;;;;;;;;16.10;54.62;99624.69;5054707;28;597;-56
2022/05/02 15:41:47;;;;;;;;;;;;;;;15.90;54.21;99627.69;5054358;28;879;-55
2022/05/02 15:44:14;;;;;;;;;;;;;;;15.80;54.37;99622.44;5054490;28;810;-57